createdAt,value
2017-07-22T00:03:15.599Z,19.74
2017-07-22T00:08:12.003Z,19.70
2017-07-22T00:13:07.595Z,19.77
2017-07-22T00:18:03.697Z,19.73
2017-07-22T00:23:00.539Z,19.77
2017-07-22T00:27:56.058Z,19.73
2017-07-22T00:32:53.488Z,19.74
2017-07-22T00:37:49.472Z,19.79
2017-07-22T00:42:45.463Z,19.77
2017-07-22T00:47:41.119Z,19.73
2017-07-22T00:52:36.990Z,19.67
2017-07-22T00:57:33.419Z,19.70
2017-07-22T01:02:30.056Z,19.63
2017-07-22T01:07:25.544Z,19.56
2017-07-22T01:12:21.651Z,19.54
2017-07-22T01:17:18.394Z,19.52
2017-07-22T01:22:14.121Z,19.54
2017-07-22T01:27:10.933Z,19.44
2017-07-22T01:32:06.991Z,19.47
2017-07-22T01:37:02.701Z,19.37
2017-07-22T01:41:58.860Z,19.39
2017-07-22T01:46:54.695Z,19.39
2017-07-22T01:51:51.848Z,19.47
2017-07-22T01:56:47.168Z,19.36
2017-07-22T02:01:43.110Z,19.33
2017-07-22T02:06:39.933Z,19.45
2017-07-22T02:11:36.781Z,19.62
2017-07-22T02:16:33.603Z,19.56
2017-07-22T02:21:29.129Z,19.73
2017-07-22T02:26:25.055Z,19.62
2017-07-22T02:31:23.210Z,19.84
2017-07-22T02:36:19.628Z,19.91
2017-07-22T02:41:15.369Z,20.06
2017-07-22T02:46:13.599Z,20.10
2017-07-22T02:51:10.436Z,20.21
2017-07-22T02:56:07.277Z,20.18
2017-07-22T03:01:04.155Z,19.49
2017-07-22T03:05:59.462Z,18.81
2017-07-22T03:10:58.055Z,18.55
2017-07-22T03:15:53.966Z,18.50
2017-07-22T03:20:49.587Z,18.47
2017-07-22T03:25:45.725Z,18.44
2017-07-22T03:30:41.412Z,18.50
2017-07-22T03:35:37.632Z,18.55
2017-07-22T03:40:34.594Z,18.59
2017-07-22T03:45:30.769Z,18.65
2017-07-22T03:50:26.273Z,18.63
2017-07-22T03:55:22.081Z,18.65
2017-07-22T04:00:18.072Z,18.60
2017-07-22T04:05:14.860Z,18.63
2017-07-22T04:10:10.445Z,18.65
2017-07-22T04:20:10.399Z,18.71
2017-07-22T04:25:05.612Z,18.71
2017-07-22T04:30:03.700Z,18.62
2017-07-22T04:34:59.162Z,18.77
2017-07-22T04:39:56.383Z,18.78
2017-07-22T04:44:52.964Z,18.80
2017-07-22T04:49:48.945Z,18.80
2017-07-22T04:54:48.003Z,18.90
2017-07-22T04:59:43.284Z,18.62
2017-07-22T05:04:40.938Z,18.20
2017-07-22T05:09:36.170Z,18.15
2017-07-22T05:14:33.189Z,18.18
2017-07-22T05:19:28.993Z,18.15
2017-07-22T05:24:24.979Z,18.03
2017-07-22T05:29:21.175Z,18.23
2017-07-22T05:34:17.153Z,18.40
2017-07-22T05:39:13.096Z,18.31
2017-07-22T05:44:09.998Z,18.13
2017-07-22T05:49:05.679Z,18.25
2017-07-22T05:54:01.644Z,18.47
2017-07-22T05:58:57.618Z,18.45
2017-07-22T06:03:53.778Z,18.43
2017-07-22T06:08:50.019Z,18.44
2017-07-22T06:13:47.568Z,18.56
2017-07-22T06:18:45.060Z,18.50
2017-07-22T06:28:42.637Z,18.95
2017-07-22T06:33:38.464Z,19.18
2017-07-22T06:38:35.964Z,19.47
2017-07-22T06:43:31.742Z,19.63
2017-07-22T06:48:28.603Z,19.86
2017-07-22T06:53:25.335Z,19.88
2017-07-22T06:58:20.991Z,19.99
2017-07-22T07:03:16.868Z,20.04
2017-07-22T07:08:12.698Z,20.02
2017-07-22T07:13:08.508Z,20.11
2017-07-22T07:18:05.725Z,20.31
2017-07-22T07:23:02.856Z,20.36
2017-07-22T07:27:58.596Z,20.36
2017-07-22T07:32:54.703Z,20.40
2017-07-22T07:37:51.780Z,20.50
2017-07-22T07:42:47.390Z,20.58
2017-07-22T07:47:44.030Z,20.72
2017-07-22T07:52:39.878Z,20.78
2017-07-22T07:57:37.391Z,21.45
2017-07-22T08:02:36.560Z,22.48
2017-07-22T08:07:35.148Z,23.28
2017-07-22T08:12:32.954Z,23.80
2017-07-22T08:17:30.181Z,24.11
2017-07-22T08:22:27.284Z,24.11
2017-07-22T08:27:25.148Z,24.43
2017-07-22T08:32:21.088Z,24.78
2017-07-22T08:37:19.031Z,25.32
2017-07-22T08:42:15.667Z,25.48
2017-07-22T08:47:13.809Z,25.17
2017-07-22T08:52:09.429Z,25.48
2017-07-22T08:57:06.196Z,25.08
2017-07-22T09:02:01.152Z,24.89
2017-07-22T09:06:59.384Z,25.38
2017-07-22T09:11:57.098Z,25.65
2017-07-22T09:16:53.387Z,25.87
2017-07-22T09:21:49.281Z,25.63
2017-07-22T09:26:46.019Z,25.38
2017-07-22T09:31:42.965Z,25.77
2017-07-22T09:36:39.551Z,26.34
2017-07-22T09:41:36.071Z,26.02
2017-07-22T09:46:31.597Z,25.58
2017-07-22T09:51:29.601Z,26.09
2017-07-22T09:56:25.778Z,26.33
2017-07-22T10:01:25.243Z,26.43
2017-07-22T10:06:20.691Z,26.81
2017-07-22T10:11:17.193Z,26.62
2017-07-22T10:16:13.629Z,27.18
2017-07-22T10:21:09.366Z,27.26
2017-07-22T10:26:04.679Z,26.81
2017-07-22T10:31:02.346Z,27.35
2017-07-22T10:35:59.824Z,27.33
2017-07-22T10:40:56.235Z,27.22
2017-07-22T10:45:50.120Z,26.28
2017-07-22T10:50:45.403Z,26.52
2017-07-22T10:55:44.665Z,27.03
2017-07-22T11:00:40.420Z,26.56
2017-07-22T11:05:34.839Z,26.62
2017-07-22T11:10:34.548Z,27.29
2017-07-22T11:15:33.294Z,27.42
2017-07-22T11:20:30.115Z,27.95
2017-07-22T11:25:28.008Z,28.57
2017-07-22T11:30:24.339Z,27.68
2017-07-22T11:35:21.524Z,27.36
2017-07-22T11:40:15.658Z,27.65
2017-07-22T11:45:14.256Z,27.63
2017-07-22T11:50:12.068Z,27.70
2017-07-22T11:55:08.530Z,28.17
2017-07-22T12:00:03.106Z,28.04
2017-07-22T12:04:58.075Z,27.90
2017-07-22T12:09:55.044Z,27.49
2017-07-22T12:14:54.652Z,27.96
2017-07-22T12:19:51.668Z,28.52
2017-07-22T12:24:49.322Z,28.41
2017-07-22T12:29:46.059Z,28.64
2017-07-22T12:34:42.018Z,29.04
2017-07-22T12:39:39.535Z,29.14
2017-07-22T12:44:35.434Z,28.81
2017-07-22T12:49:31.040Z,28.94
2017-07-22T12:54:26.080Z,28.98
2017-07-22T12:59:22.889Z,29.17
2017-07-22T13:04:18.344Z,29.16
2017-07-22T13:09:13.447Z,28.69
2017-07-22T13:14:10.929Z,28.82
2017-07-22T13:19:06.989Z,28.84
2017-07-22T13:24:04.960Z,29.02
2017-07-22T13:29:00.147Z,28.17
2017-07-22T13:33:56.136Z,28.91
2017-07-22T13:38:52.207Z,29.29
2017-07-22T13:43:50.324Z,29.05
2017-07-22T13:48:44.393Z,28.04
2017-07-22T13:53:40.532Z,28.67
2017-07-22T13:58:37.191Z,28.59
2017-07-22T14:03:34.262Z,28.25
2017-07-22T14:08:29.899Z,28.12
2017-07-22T14:13:26.043Z,28.29
2017-07-22T14:18:21.904Z,27.95
2017-07-22T14:23:16.913Z,27.87
2017-07-22T14:28:12.186Z,27.92
2017-07-22T14:33:07.524Z,27.96
2017-07-22T14:38:04.149Z,27.98
2017-07-22T14:43:00.614Z,27.58
2017-07-22T14:47:57.087Z,27.39
2017-07-22T14:52:53.588Z,27.35
2017-07-22T14:57:48.795Z,27.12
2017-07-22T15:02:44.947Z,27.15
2017-07-22T15:07:41.690Z,27.15
2017-07-22T15:12:37.147Z,27.07
2017-07-22T15:17:33.229Z,27.05
2017-07-22T15:22:28.969Z,27.14
2017-07-22T15:27:26.118Z,27.11
2017-07-22T15:32:24.238Z,27.03
2017-07-22T15:37:20.013Z,27.08
2017-07-22T15:42:17.275Z,27.03
2017-07-22T15:47:13.908Z,26.89
2017-07-22T15:52:15.238Z,27.03
2017-07-22T15:57:11.498Z,27.00
2017-07-22T16:02:08.264Z,27.07
2017-07-22T16:07:05.782Z,26.97
2017-07-22T16:12:01.572Z,26.99
2017-07-22T16:16:58.613Z,27.00
2017-07-22T16:21:54.629Z,27.18
2017-07-22T16:26:52.023Z,27.17
2017-07-22T16:31:48.630Z,27.08
2017-07-22T16:36:45.374Z,26.89
2017-07-22T16:41:40.847Z,26.70
2017-07-22T16:46:36.570Z,26.48
2017-07-22T16:51:32.964Z,26.22
2017-07-22T16:56:29.723Z,25.80
2017-07-22T17:01:24.865Z,25.33
2017-07-22T17:06:20.686Z,25.10
2017-07-22T17:11:16.610Z,24.78
2017-07-22T17:16:12.435Z,24.69
2017-07-22T17:21:10.382Z,24.69
2017-07-22T17:26:06.041Z,24.73
2017-07-22T17:31:02.169Z,24.65
2017-07-22T17:35:57.778Z,24.57
2017-07-22T17:40:54.198Z,24.58
2017-07-22T17:50:54.118Z,24.24
2017-07-22T17:55:50.211Z,24.24
2017-07-22T18:00:47.224Z,24.03
2017-07-22T18:05:44.831Z,24.01
2017-07-22T18:10:41.511Z,23.93
2017-07-22T18:15:38.253Z,24.03
2017-07-22T18:20:33.890Z,24.02
2017-07-22T18:25:30.996Z,24.03
2017-07-22T18:30:28.143Z,24.03
2017-07-22T18:35:24.198Z,24.03
2017-07-22T18:40:21.116Z,24.03
2017-07-22T18:45:17.101Z,23.91
2017-07-22T18:50:15.460Z,23.86
2017-07-22T18:55:11.865Z,23.83
2017-07-22T19:00:07.397Z,23.86
2017-07-22T19:05:03.350Z,23.92
2017-07-22T19:10:00.703Z,23.84
2017-07-22T19:14:56.600Z,23.78
2017-07-22T19:19:52.587Z,23.87
2017-07-22T19:24:48.417Z,23.91
2017-07-22T19:29:44.509Z,23.78
2017-07-22T19:34:40.424Z,23.81
2017-07-22T19:39:37.184Z,23.78
2017-07-22T19:44:34.467Z,23.61
2017-07-22T19:49:30.249Z,23.50
2017-07-22T19:54:25.939Z,23.40
2017-07-22T19:59:22.381Z,23.28
2017-07-22T20:04:18.076Z,23.12
2017-07-22T20:09:13.849Z,23.15
2017-07-22T20:14:09.735Z,23.05
2017-07-22T20:19:06.495Z,22.85
2017-07-22T20:24:02.368Z,22.81
2017-07-22T20:28:59.091Z,22.69
2017-07-22T20:33:54.520Z,22.59
2017-07-22T20:38:51.610Z,22.54
2017-07-22T20:43:47.163Z,22.36
2017-07-22T20:48:44.083Z,22.20
2017-07-22T20:53:40.829Z,22.14
2017-07-22T20:58:37.311Z,22.28
2017-07-22T21:03:34.127Z,22.06
2017-07-22T21:08:29.677Z,22.06
2017-07-22T21:13:25.782Z,21.96
2017-07-22T21:18:21.931Z,21.87
2017-07-22T21:23:18.879Z,21.76
2017-07-22T21:28:15.396Z,21.77
2017-07-22T21:33:11.901Z,21.73
2017-07-22T21:38:07.657Z,21.67
2017-07-22T21:43:03.637Z,21.54
2017-07-22T21:47:59.894Z,21.37
2017-07-22T21:52:55.731Z,21.37
2017-07-22T21:57:51.727Z,21.30
2017-07-22T22:02:48.469Z,21.20
2017-07-22T22:07:44.089Z,21.33
2017-07-22T22:12:40.198Z,21.25
2017-07-22T22:17:37.094Z,21.14
2017-07-22T22:22:32.522Z,21.32
2017-07-22T22:27:28.470Z,21.39
2017-07-22T22:32:25.763Z,21.20
2017-07-22T22:37:21.345Z,21.12
2017-07-22T22:42:17.182Z,20.95
2017-07-22T22:47:13.921Z,20.96
2017-07-22T22:52:11.553Z,20.96
2017-07-22T22:57:07.022Z,21.00
2017-07-22T23:02:02.852Z,21.22
2017-07-22T23:06:59.369Z,21.17
2017-07-22T23:11:56.768Z,20.81
2017-07-22T23:16:52.401Z,20.80
2017-07-22T23:21:48.804Z,20.55
2017-07-22T23:26:45.586Z,20.43
2017-07-22T23:31:41.141Z,20.32
2017-07-22T23:36:38.061Z,20.31
2017-07-22T23:41:33.816Z,20.24
2017-07-22T23:46:29.869Z,20.19
2017-07-22T23:51:26.637Z,20.22
2017-07-22T23:56:22.819Z,19.96
